createdAt,value
2023-05-14T00:00:31.350Z,59.97
2023-05-14T00:05:32.791Z,60.26
2023-05-14T00:10:34.520Z,59.76
2023-05-14T00:15:36.121Z,60.08
2023-05-14T00:20:37.871Z,60.02
2023-05-14T00:25:39.320Z,59.94
2023-05-14T00:30:40.831Z,59.91
2023-05-14T00:35:42.259Z,60.37
2023-05-14T00:40:45.790Z,60.10
2023-05-14T00:45:53.799Z,60.36
2023-05-14T00:50:55.429Z,60.22
2023-05-14T00:55:58.593Z,60.49
2023-05-14T01:01:00.115Z,60.09
2023-05-14T01:06:15.524Z,60.17
2023-05-14T01:11:29.193Z,60.20
2023-05-14T01:16:33.358Z,60.75
2023-05-14T01:21:40.945Z,60.46
2023-05-14T01:26:42.459Z,60.55
2023-05-14T01:31:46.541Z,60.63
2023-05-14T01:36:50.202Z,60.87
2023-05-14T01:41:52.685Z,60.70
2023-05-14T01:46:54.162Z,60.51
2023-05-14T01:51:55.661Z,60.74
2023-05-14T01:56:57.130Z,60.99
2023-05-14T02:01:58.808Z,61.66
2023-05-14T02:07:00.487Z,61.83
2023-05-14T02:12:01.972Z,62.14
2023-05-14T02:17:03.691Z,62.49
2023-05-14T02:22:05.371Z,62.41
2023-05-14T02:27:06.808Z,62.77
2023-05-14T02:32:08.307Z,63.05
2023-05-14T02:37:09.816Z,63.30
2023-05-14T02:42:11.292Z,63.36
2023-05-14T02:47:12.805Z,63.62
2023-05-14T02:52:14.261Z,64.75
2023-05-14T02:57:15.685Z,63.86
2023-05-14T03:02:17.311Z,64.03
2023-05-14T03:07:19.262Z,63.96
2023-05-14T03:12:21.104Z,64.21
2023-05-14T03:17:23.005Z,64.49
2023-05-14T03:22:24.468Z,64.64
2023-05-14T03:27:25.866Z,64.59
2023-05-14T03:32:27.465Z,65.12
2023-05-14T03:37:28.956Z,64.91
2023-05-14T03:42:30.479Z,64.98
2023-05-14T03:47:31.938Z,65.33
2023-05-14T03:52:33.382Z,65.40
2023-05-14T03:57:34.824Z,65.87
2023-05-14T04:02:36.371Z,65.25
2023-05-14T04:07:37.869Z,64.59
2023-05-14T04:12:39.321Z,64.64
2023-05-14T04:17:41.199Z,64.49
2023-05-14T04:22:42.672Z,64.21
2023-05-14T04:27:44.121Z,63.98
2023-05-14T04:32:45.594Z,63.66
2023-05-14T04:37:47.274Z,63.25
2023-05-14T04:42:48.671Z,63.17
2023-05-14T04:47:50.101Z,63.47
2023-05-14T04:52:51.546Z,63.50
2023-05-14T04:57:53.029Z,62.94
2023-05-14T05:02:54.600Z,62.83
2023-05-14T05:07:56.147Z,62.27
2023-05-14T05:12:58.646Z,62.06
2023-05-14T05:18:00.581Z,61.19
2023-05-14T05:23:02.073Z,61.29
2023-05-14T05:28:03.646Z,61.04
2023-05-14T05:33:05.287Z,59.97
2023-05-14T05:38:07.378Z,59.41
2023-05-14T05:43:08.800Z,58.55
2023-05-14T05:48:10.284Z,59.17
2023-05-14T05:53:12.463Z,60.19
2023-05-14T05:58:15.784Z,60.52
2023-05-14T06:03:17.283Z,61.29
2023-05-14T06:08:18.931Z,60.32
2023-05-14T06:13:20.424Z,60.05
2023-05-14T06:18:21.879Z,59.36
2023-05-14T06:23:23.359Z,59.19
2023-05-14T06:28:24.793Z,58.51
2023-05-14T06:33:30.829Z,58.54
2023-05-14T06:38:32.822Z,58.70
2023-05-14T06:43:34.229Z,56.16
2023-05-14T06:48:36.460Z,56.60
2023-05-14T06:53:37.961Z,53.60
2023-05-14T06:58:39.377Z,54.22
2023-05-14T07:03:40.901Z,52.54
2023-05-14T07:08:45.973Z,51.88
2023-05-14T07:13:47.473Z,52.25
2023-05-14T07:18:49.003Z,49.79
2023-05-14T07:23:51.035Z,51.71
2023-05-14T07:28:52.641Z,49.98
2023-05-14T07:33:54.056Z,50.06
2023-05-14T07:38:56.115Z,50.77
2023-05-14T07:43:57.601Z,49.68
2023-05-14T07:48:59.028Z,47.87
2023-05-14T07:54:01.007Z,49.78
2023-05-14T07:59:02.415Z,49.08
2023-05-14T08:04:03.958Z,48.23
2023-05-14T08:09:05.487Z,46.68
2023-05-14T08:14:06.920Z,47.06
2023-05-14T08:19:08.500Z,44.74
2023-05-14T08:24:09.998Z,43.26
2023-05-14T08:29:12.841Z,44.19
2023-05-14T08:34:15.746Z,43.28
2023-05-14T08:39:17.192Z,43.37
2023-05-14T08:44:20.564Z,42.85
2023-05-14T08:49:44.920Z,46.95
2023-05-14T08:54:48.151Z,44.57
2023-05-14T08:59:49.593Z,42.34
2023-05-14T09:05:01.550Z,44.41
2023-05-14T09:10:04.022Z,43.92
2023-05-14T09:15:06.559Z,44.40
2023-05-14T09:20:09.624Z,45.02
2023-05-14T09:25:14.690Z,45.50
2023-05-14T09:30:16.272Z,45.27
2023-05-14T09:35:20.779Z,45.51
2023-05-14T09:40:24.328Z,44.90
2023-05-14T09:45:26.337Z,44.93
2023-05-14T09:50:27.761Z,44.20
2023-05-14T09:55:29.403Z,44.31
2023-05-14T10:00:32.934Z,43.69
2023-05-14T10:05:36.554Z,43.38
2023-05-14T10:10:38.643Z,42.57
2023-05-14T10:15:43.630Z,45.03
2023-05-14T10:20:53.285Z,43.89
2023-05-14T10:25:54.868Z,43.17
2023-05-14T10:30:56.459Z,42.57
2023-05-14T10:36:04.469Z,42.06
2023-05-14T10:41:10.883Z,43.86
2023-05-14T10:46:14.078Z,44.06
2023-05-14T10:51:17.466Z,44.12
2023-05-14T10:56:19.486Z,44.00
2023-05-14T11:01:24.108Z,42.57
2023-05-14T11:06:26.811Z,42.52
2023-05-14T11:11:28.340Z,41.33
2023-05-14T11:16:31.267Z,41.46
2023-05-14T11:21:32.959Z,39.40
2023-05-14T11:26:35.822Z,40.77
2023-05-14T11:31:37.365Z,40.46
2023-05-14T11:36:38.985Z,40.05
2023-05-14T11:41:45.125Z,39.49
2023-05-14T11:46:56.657Z,39.62
2023-05-14T11:51:59.367Z,39.00
2023-05-14T11:57:07.858Z,39.26
2023-05-14T12:02:13.209Z,39.38
2023-05-14T12:07:16.457Z,39.55
2023-05-14T12:12:20.415Z,39.22
2023-05-14T12:17:23.209Z,38.92
2023-05-14T12:22:24.736Z,38.71
2023-05-14T12:27:27.730Z,39.57
2023-05-14T12:32:32.188Z,38.40
2023-05-14T12:37:34.160Z,38.13
2023-05-14T12:42:35.942Z,36.28
2023-05-14T12:47:37.752Z,38.00
2023-05-14T12:52:40.080Z,37.73
2023-05-14T12:57:41.855Z,36.44
2023-05-14T13:02:44.060Z,37.32
2023-05-14T13:07:45.803Z,36.94
2023-05-14T13:12:47.286Z,38.48
2023-05-14T13:17:49.046Z,38.33
2023-05-14T13:22:50.665Z,38.88
2023-05-14T13:27:52.110Z,39.80
2023-05-14T13:32:53.532Z,39.67
2023-05-14T13:37:55.002Z,40.87
2023-05-14T13:42:56.485Z,40.47
2023-05-14T13:47:57.993Z,39.72
2023-05-14T13:52:59.537Z,40.63
2023-05-14T13:58:02.360Z,40.76
2023-05-14T14:03:03.943Z,41.35
2023-05-14T14:08:22.046Z,41.44
2023-05-14T14:13:25.147Z,42.64
2023-05-14T14:18:26.805Z,42.30
2023-05-14T14:23:28.344Z,42.87
2023-05-14T14:28:29.919Z,43.57
2023-05-14T14:33:31.417Z,42.63
2023-05-14T14:38:33.021Z,44.14
2023-05-14T14:43:34.608Z,44.40
2023-05-14T14:48:39.873Z,43.79
2023-05-14T14:53:41.415Z,42.88
2023-05-14T14:58:42.921Z,43.13
2023-05-14T15:03:45.644Z,43.95
2023-05-14T15:08:47.338Z,42.89
2023-05-14T15:13:48.920Z,42.76
2023-05-14T15:18:50.546Z,43.60
2023-05-14T15:23:52.400Z,42.85
2023-05-14T15:28:54.036Z,42.68
2023-05-14T15:33:56.121Z,43.23
2023-05-14T15:38:57.862Z,43.87
2023-05-14T15:43:59.356Z,43.77
2023-05-14T15:49:00.799Z,43.73
2023-05-14T15:54:02.338Z,45.19
2023-05-14T15:59:03.792Z,44.26
2023-05-14T16:04:05.414Z,45.24
2023-05-14T16:09:07.047Z,45.09
2023-05-14T16:14:08.445Z,44.93
2023-05-14T16:19:10.061Z,45.83
2023-05-14T16:24:12.754Z,46.74
2023-05-14T16:29:14.256Z,47.11
2023-05-14T16:34:16.186Z,46.95
2023-05-14T16:39:19.813Z,47.01
2023-05-14T16:44:21.360Z,47.73
2023-05-14T16:49:22.853Z,47.57
2023-05-14T16:54:24.256Z,48.12
2023-05-14T16:59:27.178Z,47.60
2023-05-14T17:04:28.764Z,47.51
2023-05-14T17:09:31.436Z,47.60
2023-05-14T17:14:32.888Z,47.65
2023-05-14T17:19:34.354Z,48.39
2023-05-14T17:24:36.572Z,48.34
2023-05-14T17:29:38.109Z,48.28
2023-05-14T17:34:39.560Z,48.63
2023-05-14T17:39:40.982Z,48.49
2023-05-14T17:44:42.440Z,48.74
2023-05-14T17:49:43.895Z,49.17
2023-05-14T17:54:45.472Z,49.42
2023-05-14T17:59:46.897Z,49.31
2023-05-14T18:04:48.366Z,49.10
2023-05-14T18:09:49.890Z,49.36
2023-05-14T18:14:51.724Z,49.59
2023-05-14T18:19:53.232Z,49.94
2023-05-14T18:24:54.695Z,49.56
2023-05-14T18:29:56.171Z,49.18
2023-05-14T18:34:57.620Z,48.94
2023-05-14T18:39:59.065Z,48.73
2023-05-14T18:45:00.665Z,48.71
2023-05-14T18:50:03.008Z,48.81
2023-05-14T18:55:04.874Z,48.75
2023-05-14T19:00:07.226Z,49.02
2023-05-14T19:05:08.938Z,49.19
2023-05-14T19:10:10.894Z,50.17
2023-05-14T19:15:12.446Z,53.59
2023-05-14T19:20:14.014Z,54.04
2023-05-14T19:25:15.519Z,54.74
2023-05-14T19:30:17.781Z,55.29
2023-05-14T19:35:19.686Z,57.04
2023-05-14T19:40:21.105Z,57.03
2023-05-14T19:45:22.625Z,58.79
2023-05-14T19:50:24.182Z,66.54
2023-05-14T19:55:26.035Z,65.78
2023-05-14T20:00:27.981Z,64.27
2023-05-14T20:05:29.691Z,65.06
2023-05-14T20:10:31.192Z,67.69
2023-05-14T20:15:32.635Z,67.32
2023-05-14T20:20:34.219Z,70.86
2023-05-14T20:25:35.712Z,69.98
2023-05-14T20:30:37.351Z,74.97
2023-05-14T20:35:40.766Z,77.00
2023-05-14T20:40:42.220Z,72.28
2023-05-14T20:45:43.721Z,73.23
2023-05-14T20:50:45.125Z,74.85
2023-05-14T20:55:46.601Z,77.67
2023-05-14T21:00:48.065Z,76.38
2023-05-14T21:05:49.534Z,77.41
2023-05-14T21:10:50.969Z,76.77
2023-05-14T21:15:52.527Z,78.10
2023-05-14T21:20:53.959Z,78.58
2023-05-14T21:25:55.632Z,80.15
2023-05-14T21:30:57.192Z,80.29
2023-05-14T21:35:58.877Z,83.91
2023-05-14T21:41:00.674Z,83.89
2023-05-14T21:46:02.202Z,84.29
2023-05-14T21:51:03.844Z,81.89
2023-05-14T21:56:06.077Z,82.52
2023-05-14T22:01:09.045Z,82.21
2023-05-14T22:06:10.611Z,82.51
2023-05-14T22:11:12.085Z,82.18
2023-05-14T22:16:14.299Z,82.50
2023-05-14T22:21:15.974Z,83.73
2023-05-14T22:26:17.460Z,83.68
2023-05-14T22:31:18.974Z,83.59
2023-05-14T22:36:20.526Z,84.84
2023-05-14T22:41:22.120Z,84.03
2023-05-14T22:46:23.693Z,84.59
2023-05-14T22:51:25.520Z,84.80
2023-05-14T22:56:27.796Z,85.60
2023-05-14T23:01:30.091Z,85.29
2023-05-14T23:06:31.875Z,85.95
2023-05-14T23:11:33.347Z,86.42
2023-05-14T23:16:35.143Z,86.58
2023-05-14T23:21:36.548Z,87.73
2023-05-14T23:26:38.240Z,87.96
2023-05-14T23:31:41.028Z,87.45
2023-05-14T23:36:42.703Z,87.85
2023-05-14T23:41:44.206Z,87.24
2023-05-14T23:46:45.733Z,87.57
2023-05-14T23:51:47.216Z,87.12
2023-05-14T23:56:48.759Z,86.23
